createdAt,value
2022-12-16T00:00:36.256Z,98674.03
2022-12-16T00:01:39.992Z,98674.22
2022-12-16T00:02:44.234Z,98661.19
2022-12-16T00:03:57.030Z,98667.38
2022-12-16T00:05:00.869Z,98655.31
2022-12-16T00:06:06.366Z,98659.44
2022-12-16T00:07:10.097Z,98662.16
2022-12-16T00:08:14.179Z,98658.06
2022-12-16T00:09:18.107Z,98672.59
2022-12-16T00:10:23.819Z,98668.28
2022-12-16T00:11:28.795Z,98662.31
2022-12-16T00:12:32.754Z,98663.50
2022-12-16T00:13:40.565Z,98652.00
2022-12-16T00:14:44.588Z,98655.34
2022-12-16T00:15:49.500Z,98644.44
2022-12-16T00:16:54.274Z,98653.84
2022-12-16T00:17:58.391Z,98661.75
2022-12-16T00:19:02.332Z,98666.69
2022-12-16T00:20:07.360Z,98665.78
2022-12-16T00:21:12.102Z,98666.75
2022-12-16T00:22:15.804Z,98670.13
2022-12-16T00:23:20.690Z,98674.47
2022-12-16T00:24:24.314Z,98676.13
2022-12-16T00:25:28.277Z,98688.25
2022-12-16T00:26:31.975Z,98682.13
2022-12-16T00:27:35.567Z,98683.78
2022-12-16T00:28:40.543Z,98684.75
2022-12-16T00:29:44.167Z,98681.34
2022-12-16T00:30:51.940Z,98677.66
2022-12-16T00:31:55.748Z,98667.03
2022-12-16T00:32:59.533Z,98652.28
2022-12-16T00:34:03.090Z,98654.91
2022-12-16T00:35:07.385Z,98658.25
2022-12-16T00:36:11.419Z,98654.00
2022-12-16T00:37:15.196Z,98651.28
2022-12-16T00:38:19.835Z,98647.00
2022-12-16T00:39:24.058Z,98642.69
2022-12-16T00:40:27.920Z,98649.75
2022-12-16T00:41:31.868Z,98652.22
2022-12-16T00:42:35.664Z,98656.72
2022-12-16T00:43:39.420Z,98661.81
2022-12-16T00:44:43.362Z,98661.81
2022-12-16T00:45:47.992Z,98669.66
2022-12-16T00:46:51.849Z,98648.31
2022-12-16T00:47:56.400Z,98644.81
2022-12-16T00:49:00.217Z,98643.94
2022-12-16T00:50:05.548Z,98648.41
2022-12-16T00:51:09.440Z,98641.50
2022-12-16T00:52:13.559Z,98650.25
2022-12-16T00:53:17.842Z,98647.47
2022-12-16T00:54:21.749Z,98643.16
2022-12-16T00:55:25.481Z,98646.63
2022-12-16T00:56:30.294Z,98644.69
2022-12-16T00:57:34.343Z,98648.88
2022-12-16T00:58:38.570Z,98653.06
2022-12-16T00:59:42.251Z,98652.00
2022-12-16T01:00:46.238Z,98646.72
2022-12-16T01:01:50.080Z,98652.75
2022-12-16T01:02:54.731Z,98651.16
2022-12-16T01:03:58.977Z,98655.38
2022-12-16T01:05:02.562Z,98650.16
2022-12-16T01:06:17.144Z,98646.72
2022-12-16T01:07:20.825Z,98651.06
2022-12-16T01:08:24.429Z,98657.84
2022-12-16T01:09:28.218Z,98655.38
2022-12-16T01:10:32.112Z,98649.09
2022-12-16T01:11:37.252Z,98650.72
2022-12-16T01:12:41.903Z,98647.25
2022-12-16T01:13:47.313Z,98634.84
2022-12-16T01:14:50.934Z,98641.84
2022-12-16T01:15:55.326Z,98637.75
2022-12-16T01:16:59.339Z,98635.44
2022-12-16T01:18:03.091Z,98638.22
2022-12-16T01:19:07.334Z,98625.19
2022-12-16T01:20:11.950Z,98620.06
2022-12-16T01:21:16.458Z,98614.84
2022-12-16T01:22:22.272Z,98615.69
2022-12-16T01:23:26.271Z,98616.50
2022-12-16T01:24:30.361Z,98611.22
2022-12-16T01:25:33.943Z,98615.66
2022-12-16T01:26:39.372Z,98609.56
2022-12-16T01:27:43.127Z,98604.34
2022-12-16T01:28:50.251Z,98595.78
2022-12-16T01:29:55.722Z,98592.25
2022-12-16T01:31:04.594Z,98594.06
2022-12-16T01:32:12.910Z,98591.97
2022-12-16T01:33:17.974Z,98598.03
2022-12-16T01:34:22.272Z,98595.50
2022-12-16T01:35:51.954Z,98598.50
2022-12-16T01:36:49.428Z,98594.53
2022-12-16T01:37:54.169Z,98596.19
2022-12-16T01:38:58.940Z,98595.22
2022-12-16T01:40:07.173Z,98601.22
2022-12-16T01:41:16.135Z,98595.09
2022-12-16T01:42:23.836Z,98594.00
2022-12-16T01:43:36.129Z,98576.59
2022-12-16T01:44:45.068Z,98571.59
2022-12-16T01:46:00.560Z,98581.19
2022-12-16T01:47:07.067Z,98573.34
2022-12-16T01:48:30.842Z,98581.38
2022-12-16T01:50:16.403Z,98583.00
2022-12-16T01:51:40.862Z,98577.84
2022-12-16T01:52:55.342Z,98570.81
2022-12-16T01:54:12.139Z,98563.09
2022-12-16T01:55:48.701Z,98567.63
2022-12-16T01:57:03.274Z,98570.97
2022-12-16T01:58:18.118Z,98571.81
2022-12-16T01:59:25.819Z,98557.13
2022-12-16T02:00:29.899Z,98568.34
2022-12-16T02:01:33.590Z,98567.75
2022-12-16T02:02:38.168Z,98563.34
2022-12-16T02:03:44.420Z,98557.28
2022-12-16T02:05:07.822Z,98548.03
2022-12-16T02:06:11.920Z,98549.81
2022-12-16T02:07:16.023Z,98544.59
2022-12-16T02:08:20.730Z,98548.13
2022-12-16T02:09:25.073Z,98538.25
2022-12-16T02:10:50.371Z,98541.00
2022-12-16T02:12:34.937Z,98528.94
2022-12-16T02:14:20.664Z,98528.94
2022-12-16T02:15:46.212Z,98523.78
2022-12-16T02:17:28.611Z,98534.84
2022-12-16T02:19:06.363Z,98547.13
2022-12-16T02:20:44.966Z,98547.22
2022-12-16T02:22:17.689Z,98534.22
2022-12-16T02:24:13.812Z,98536.50
2022-12-16T02:26:01.080Z,98537.25
2022-12-16T02:27:55.035Z,98539.72
2022-12-16T02:29:32.416Z,98543.25
2022-12-16T02:31:23.854Z,98536.31
2022-12-16T02:32:40.923Z,98547.00
2022-12-16T02:33:59.324Z,98549.31
2022-12-16T02:35:29.255Z,98548.31
2022-12-16T02:36:39.445Z,98541.25
2022-12-16T02:38:10.127Z,98531.09
2022-12-16T02:39:40.956Z,98543.00
2022-12-16T02:41:03.859Z,98529.00
2022-12-16T02:42:20.177Z,98532.56
2022-12-16T02:43:42.618Z,98523.06
2022-12-16T02:45:03.911Z,98523.91
2022-12-16T02:46:09.144Z,98516.00
2022-12-16T02:47:13.258Z,98512.47
2022-12-16T02:48:17.489Z,98503.03
2022-12-16T02:49:24.089Z,98500.34
2022-12-16T02:50:36.861Z,98493.59
2022-12-16T02:51:41.909Z,98486.38
2022-12-16T02:52:46.169Z,98493.28
2022-12-16T02:53:54.320Z,98482.22
2022-12-16T02:55:07.891Z,98480.63
2022-12-16T02:56:37.170Z,98478.00
2022-12-16T02:58:25.391Z,98473.38
2022-12-16T03:00:09.239Z,98469.00
2022-12-16T03:01:33.078Z,98482.00
2022-12-16T03:03:14.438Z,98471.69
2022-12-16T03:04:35.274Z,98477.53
2022-12-16T03:05:49.448Z,98474.97
2022-12-16T03:06:56.685Z,98469.75
2022-12-16T03:08:08.297Z,98474.84
2022-12-16T03:09:16.167Z,98469.75
2022-12-16T03:10:24.359Z,98473.03
2022-12-16T03:11:30.930Z,98467.72
2022-12-16T03:12:38.363Z,98468.78
2022-12-16T03:13:55.200Z,98472.16
2022-12-16T03:14:59.638Z,98463.34
2022-12-16T03:16:08.167Z,98468.53
2022-12-16T03:17:14.370Z,98464.09
2022-12-16T03:18:20.205Z,98464.25
2022-12-16T03:19:26.616Z,98468.41
2022-12-16T03:20:42.598Z,98477.00
2022-12-16T03:22:14.930Z,98476.19
2022-12-16T03:23:28.276Z,98473.63
2022-12-16T03:24:33.512Z,98469.41
2022-12-16T03:25:44.402Z,98467.69
2022-12-16T03:27:13.847Z,98467.69
2022-12-16T03:28:51.351Z,98476.41
2022-12-16T03:30:16.297Z,98467.69
2022-12-16T03:31:44.561Z,98471.09
2022-12-16T03:32:51.864Z,98466.56
2022-12-16T03:34:38.447Z,98458.88
2022-12-16T03:36:00.188Z,98449.31
2022-12-16T03:37:13.432Z,98445.00
2022-12-16T03:38:18.975Z,98443.16
2022-12-16T03:39:24.710Z,98440.47
2022-12-16T03:40:29.949Z,98434.38
2022-12-16T03:41:35.973Z,98431.81
2022-12-16T03:42:42.706Z,98433.41
2022-12-16T03:43:48.703Z,98419.22
2022-12-16T03:44:52.631Z,98417.22
2022-12-16T03:46:10.610Z,98421.19
2022-12-16T03:47:21.501Z,98420.47
2022-12-16T03:48:27.428Z,98423.75
2022-12-16T03:49:30.940Z,98427.09
2022-12-16T03:50:38.383Z,98415.84
2022-12-16T03:51:43.320Z,98412.38
2022-12-16T03:52:47.015Z,98407.97
2022-12-16T03:53:50.568Z,98410.59
2022-12-16T03:54:54.051Z,98419.31
2022-12-16T03:55:58.056Z,98409.69
2022-12-16T03:57:01.550Z,98405.41
2022-12-16T03:58:05.333Z,98401.00
2022-12-16T03:59:08.881Z,98392.34
2022-12-16T04:00:13.273Z,98385.38
2022-12-16T04:01:17.179Z,98381.06
2022-12-16T04:02:20.915Z,98382.00
2022-12-16T04:03:24.810Z,98376.97
2022-12-16T04:04:29.652Z,98376.16
2022-12-16T04:05:33.483Z,98370.00
2022-12-16T04:06:37.327Z,98367.31
2022-12-16T04:07:41.689Z,98372.91
2022-12-16T04:08:47.346Z,98371.00
2022-12-16T04:09:52.846Z,98367.38
2022-12-16T04:11:15.565Z,98374.41
2022-12-16T04:12:39.491Z,98360.50
2022-12-16T04:14:01.989Z,98364.88
2022-12-16T04:15:25.908Z,98351.84
2022-12-16T04:16:49.282Z,98356.19
2022-12-16T04:18:12.177Z,98347.38
2022-12-16T04:19:47.765Z,98342.56
2022-12-16T04:21:15.576Z,98341.59
2022-12-16T04:22:45.529Z,98338.94
2022-12-16T04:24:16.198Z,98335.31
2022-12-16T04:25:30.256Z,98339.78
2022-12-16T04:26:56.897Z,98342.31
2022-12-16T04:28:00.755Z,98348.28
2022-12-16T04:29:04.279Z,98352.44
2022-12-16T04:30:21.674Z,98351.59
2022-12-16T04:31:25.944Z,98349.88
2022-12-16T04:32:53.831Z,98349.88
2022-12-16T04:34:16.157Z,98352.31
2022-12-16T04:35:38.829Z,98352.25
2022-12-16T04:37:01.404Z,98359.88
2022-12-16T04:38:24.058Z,98361.53
2022-12-16T04:39:46.379Z,98363.88
2022-12-16T04:41:08.803Z,98355.13
2022-12-16T04:42:31.625Z,98356.59
2022-12-16T04:43:54.206Z,98359.19
2022-12-16T04:45:19.272Z,98360.22
2022-12-16T04:46:41.721Z,98357.69
2022-12-16T04:48:04.333Z,98355.13
2022-12-16T04:49:27.197Z,98353.31
2022-12-16T04:50:49.480Z,98362.84
2022-12-16T04:52:12.114Z,98361.00
2022-12-16T04:53:34.740Z,98358.38
2022-12-16T04:54:57.411Z,98347.91
2022-12-16T04:56:19.598Z,98349.00
2022-12-16T04:57:42.027Z,98351.69
2022-12-16T04:59:04.555Z,98356.00
2022-12-16T05:00:28.015Z,98349.72
2022-12-16T05:01:50.342Z,98352.63
2022-12-16T05:03:12.723Z,98349.13
2022-12-16T05:04:35.511Z,98355.06
2022-12-16T05:05:58.137Z,98347.25
2022-12-16T05:07:20.479Z,98343.03
2022-12-16T05:08:42.771Z,98344.81
2022-12-16T05:10:06.061Z,98337.78
2022-12-16T05:11:28.457Z,98334.38
2022-12-16T05:12:50.735Z,98337.31
2022-12-16T05:14:13.103Z,98340.66
2022-12-16T05:15:35.745Z,98346.66
2022-12-16T05:16:58.869Z,98340.25
2022-12-16T05:18:33.652Z,98333.00
2022-12-16T05:19:56.117Z,98329.56
2022-12-16T05:21:20.825Z,98321.72
2022-12-16T05:22:43.503Z,98311.06
2022-12-16T05:24:07.074Z,98314.06
2022-12-16T05:25:29.452Z,98300.25
2022-12-16T05:27:06.121Z,98307.91
2022-12-16T05:28:28.810Z,98300.94
2022-12-16T05:29:51.256Z,98293.78
2022-12-16T05:31:13.843Z,98287.53
2022-12-16T05:32:36.413Z,98286.72
2022-12-16T05:33:58.751Z,98286.72
2022-12-16T05:35:21.597Z,98294.56
2022-12-16T05:36:44.180Z,98295.47
2022-12-16T05:38:06.723Z,98284.00
2022-12-16T05:39:29.187Z,98288.28
2022-12-16T05:40:51.522Z,98282.22
2022-12-16T05:42:15.518Z,98281.38
2022-12-16T05:43:38.555Z,98283.22
2022-12-16T05:45:00.828Z,98292.47
2022-12-16T05:46:23.434Z,98293.59
2022-12-16T05:47:47.387Z,98302.38
2022-12-16T05:49:09.856Z,98304.94
2022-12-16T05:50:32.094Z,98324.84
2022-12-16T05:51:54.361Z,98334.25
2022-12-16T05:53:16.910Z,98344.81
2022-12-16T05:54:39.358Z,98347.56
2022-12-16T05:56:01.859Z,98350.97
2022-12-16T05:57:24.129Z,98346.59
2022-12-16T05:58:46.973Z,98336.06
2022-12-16T06:00:25.747Z,98321.91
2022-12-16T06:01:47.788Z,98320.31
2022-12-16T06:03:10.399Z,98324.66
2022-12-16T06:04:32.876Z,98332.44
2022-12-16T06:05:55.853Z,98334.03
2022-12-16T06:07:18.275Z,98338.34
2022-12-16T06:08:40.788Z,98331.34
2022-12-16T06:10:03.304Z,98333.97
2022-12-16T06:11:25.742Z,98332.28
2022-12-16T06:12:48.375Z,98326.13
2022-12-16T06:14:10.725Z,98333.72
2022-12-16T06:15:33.172Z,98319.81
2022-12-16T06:16:55.818Z,98321.50
2022-12-16T06:18:18.516Z,98319.81
2022-12-16T06:19:41.004Z,98318.97
2022-12-16T06:21:03.037Z,98298.31
2022-12-16T06:22:25.860Z,98308.69
2022-12-16T06:23:48.816Z,98308.69
2022-12-16T06:25:11.455Z,98303.44
2022-12-16T06:26:33.681Z,98301.59
2022-12-16T06:27:56.159Z,98300.69
2022-12-16T06:29:18.539Z,98297.38
2022-12-16T06:30:41.035Z,98290.22
2022-12-16T06:32:03.600Z,98289.31
2022-12-16T06:33:26.058Z,98282.19
2022-12-16T06:34:48.439Z,98280.44
2022-12-16T06:36:21.775Z,98287.28
2022-12-16T06:37:44.054Z,98288.78
2022-12-16T06:39:06.311Z,98294.06
2022-12-16T06:40:29.774Z,98302.75
2022-12-16T06:41:51.959Z,98302.88
2022-12-16T06:43:14.330Z,98306.13
2022-12-16T06:44:37.045Z,98298.31
2022-12-16T06:46:01.525Z,98308.69
2022-12-16T06:47:24.255Z,98303.44
2022-12-16T06:48:46.983Z,98307.06
2022-12-16T06:50:09.527Z,98308.81
2022-12-16T06:51:31.993Z,98304.44
2022-12-16T06:52:54.667Z,98307.97
2022-12-16T06:54:17.314Z,98303.53
2022-12-16T06:55:41.538Z,98294.00
2022-12-16T06:57:03.806Z,98302.59
2022-12-16T06:58:26.106Z,98311.28
2022-12-16T06:59:48.347Z,98295.00
2022-12-16T07:01:10.877Z,98288.00
2022-12-16T07:02:33.342Z,98280.16
2022-12-16T07:03:55.846Z,98279.25
2022-12-16T07:05:18.254Z,98270.91
2022-12-16T07:06:40.641Z,98276.81
2022-12-16T07:08:11.148Z,98271.41
2022-12-16T07:09:33.829Z,98274.09
2022-12-16T07:11:03.448Z,98285.44
2022-12-16T07:12:36.798Z,98271.47
2022-12-16T07:13:59.356Z,98269.06
2022-12-16T07:15:21.740Z,98266.88
2022-12-16T07:16:44.234Z,98262.50
2022-12-16T07:18:06.514Z,98257.34
2022-12-16T07:19:28.782Z,98259.75
2022-12-16T07:20:51.375Z,98255.31
2022-12-16T07:22:17.856Z,98260.53
2022-12-16T07:23:40.501Z,98265.09
2022-12-16T07:25:03.025Z,98269.28
2022-12-16T07:26:26.057Z,98270.72
2022-12-16T07:27:48.795Z,98274.16
2022-12-16T07:29:12.148Z,98277.34
2022-12-16T07:30:34.772Z,98276.50
2022-12-16T07:31:57.676Z,98271.91
2022-12-16T07:33:20.196Z,98275.38
2022-12-16T07:34:47.138Z,98267.94
2022-12-16T07:36:12.624Z,98270.44
2022-12-16T07:37:34.904Z,98271.19
2022-12-16T07:38:57.473Z,98270.16
2022-12-16T07:40:20.123Z,98268.59
2022-12-16T07:41:42.480Z,98266.91
2022-12-16T07:43:08.005Z,98265.91
2022-12-16T07:44:30.321Z,98263.38
2022-12-16T07:45:52.777Z,98268.94
2022-12-16T07:47:16.315Z,98270.56
2022-12-16T07:48:38.622Z,98270.63
2022-12-16T07:50:01.083Z,98273.09
2022-12-16T07:51:23.687Z,98269.59
2022-12-16T07:52:45.915Z,98274.94
2022-12-16T07:54:08.344Z,98269.09
2022-12-16T07:55:30.655Z,98275.94
2022-12-16T07:57:10.006Z,98276.63
2022-12-16T07:58:32.616Z,98279.47
2022-12-16T07:59:55.220Z,98270.56
2022-12-16T08:01:18.086Z,98279.25
2022-12-16T08:02:41.412Z,98276.63
2022-12-16T08:04:04.216Z,98271.56
2022-12-16T08:05:26.772Z,98261.03
2022-12-16T08:06:49.062Z,98266.91
2022-12-16T08:08:12.133Z,98259.19
2022-12-16T08:09:34.562Z,98261.78
2022-12-16T08:10:57.094Z,98258.13
2022-12-16T08:12:20.061Z,98262.59
2022-12-16T08:13:43.570Z,98260.69
2022-12-16T08:15:06.029Z,98258.78
2022-12-16T08:16:28.461Z,98263.09
2022-12-16T08:17:53.306Z,98264.56
2022-12-16T08:19:18.259Z,98263.84
2022-12-16T08:20:40.682Z,98265.63
2022-12-16T08:22:03.154Z,98260.19
2022-12-16T08:23:25.442Z,98257.84
2022-12-16T08:24:53.224Z,98258.56
2022-12-16T08:26:16.218Z,98257.59
2022-12-16T08:27:38.622Z,98259.97
2022-12-16T08:29:26.849Z,98265.34
2022-12-16T08:30:43.525Z,98259.97
2022-12-16T08:32:05.894Z,98265.91
2022-12-16T08:33:28.429Z,98269.50
2022-12-16T08:34:51.019Z,98268.44
2022-12-16T08:36:18.105Z,98265.75
2022-12-16T08:37:40.228Z,98266.59
2022-12-16T08:39:03.205Z,98267.44
2022-12-16T08:40:35.339Z,98263.00
2022-12-16T08:41:58.239Z,98260.25
2022-12-16T08:43:20.626Z,98256.84
2022-12-16T08:44:44.174Z,98255.38
2022-12-16T08:46:06.591Z,98255.22
2022-12-16T08:47:29.143Z,98249.09
2022-12-16T08:48:51.535Z,98253.25
2022-12-16T08:50:13.831Z,98260.09
2022-12-16T08:51:36.152Z,98250.50
2022-12-16T08:52:59.066Z,98247.81
2022-12-16T08:54:21.568Z,98240.72
2022-12-16T08:55:43.929Z,98245.97
2022-12-16T08:57:06.281Z,98250.34
2022-12-16T08:58:28.822Z,98244.19
2022-12-16T08:59:51.251Z,98240.09
2022-12-16T09:01:13.689Z,98240.72
2022-12-16T09:02:36.196Z,98236.50
2022-12-16T09:03:59.951Z,98240.88
2022-12-16T09:05:23.119Z,98241.66
2022-12-16T09:06:45.884Z,98243.25
2022-12-16T09:08:08.241Z,98246.97
2022-12-16T09:09:30.579Z,98251.19
2022-12-16T09:10:55.330Z,98248.41
2022-12-16T09:12:18.344Z,98250.13
2022-12-16T09:13:41.344Z,98244.91
2022-12-16T09:15:05.120Z,98252.59
2022-12-16T09:16:28.090Z,98253.34
2022-12-16T09:17:51.121Z,98262.88
2022-12-16T09:19:13.746Z,98264.63
2022-12-16T09:20:36.214Z,98263.75
2022-12-16T09:21:58.867Z,98272.47
2022-12-16T09:23:24.306Z,98269.84
2022-12-16T09:24:46.908Z,98270.69
2022-12-16T09:26:09.364Z,98267.16
2022-12-16T09:27:35.135Z,98261.84
2022-12-16T09:28:57.434Z,98262.69
2022-12-16T09:30:20.259Z,98267.22
2022-12-16T09:31:42.745Z,98267.28
2022-12-16T09:33:05.129Z,98266.50
2022-12-16T09:34:27.655Z,98264.75
2022-12-16T09:35:49.991Z,98267.44
2022-12-16T09:37:12.843Z,98270.81
2022-12-16T09:38:35.441Z,98274.16
2022-12-16T09:39:58.346Z,98269.84
2022-12-16T09:42:00.038Z,98265.28
2022-12-16T09:43:42.636Z,98266.31
2022-12-16T09:45:20.417Z,98266.06
2022-12-16T09:47:08.748Z,98258.94
2022-12-16T09:48:46.886Z,98257.00
2022-12-16T09:50:14.056Z,98261.16
2022-12-16T09:51:36.498Z,98274.16
2022-12-16T09:53:16.940Z,98276.72
2022-12-16T09:54:43.974Z,98279.41
2022-12-16T09:56:10.866Z,98283.03
2022-12-16T09:57:38.905Z,98280.31
2022-12-16T09:59:18.132Z,98279.19
2022-12-16T10:00:47.338Z,98277.72
2022-12-16T10:02:14.359Z,98281.53
2022-12-16T10:03:57.869Z,98280.50
2022-12-16T10:05:20.414Z,98281.47
2022-12-16T10:07:07.519Z,98278.47
2022-12-16T10:08:49.352Z,98277.56
2022-12-16T10:10:39.385Z,98279.88
2022-12-16T10:12:26.032Z,98271.91
2022-12-16T10:13:59.039Z,98268.91
2022-12-16T10:15:53.632Z,98276.50
2022-12-16T10:17:44.185Z,98274.72
2022-12-16T10:19:43.495Z,98283.13
2022-12-16T10:21:13.987Z,98275.09
2022-12-16T10:23:01.955Z,98277.69
2022-12-16T10:25:01.029Z,98286.75
2022-12-16T10:26:39.247Z,98287.50
2022-12-16T10:28:05.831Z,98290.81
2022-12-16T10:29:44.172Z,98288.81
2022-12-16T10:31:07.095Z,98289.00
2022-12-16T10:32:47.967Z,98286.97
2022-12-16T10:34:11.518Z,98276.03
2022-12-16T10:36:10.464Z,98279.66
2022-12-16T10:37:59.777Z,98285.44
2022-12-16T10:39:57.241Z,98285.75
2022-12-16T10:41:25.982Z,98291.66
2022-12-16T10:42:54.743Z,98289.28
2022-12-16T10:44:20.417Z,98291.25
2022-12-16T10:46:04.913Z,98293.59
2022-12-16T10:47:29.801Z,98295.16
2022-12-16T10:48:59.723Z,98297.78
2022-12-16T10:50:33.276Z,98295.63
2022-12-16T10:51:55.805Z,98306.69
2022-12-16T10:53:43.957Z,98303.31
2022-12-16T10:55:14.964Z,98309.47
2022-12-16T10:57:17.050Z,98310.88
2022-12-16T10:59:06.750Z,98301.22
2022-12-16T11:00:40.293Z,98306.25
2022-12-16T11:02:20.803Z,98308.09
2022-12-16T11:03:54.499Z,98305.00
2022-12-16T11:05:17.327Z,98293.00
2022-12-16T11:06:49.913Z,98292.75
2022-12-16T11:08:51.026Z,98280.97
2022-12-16T11:10:24.283Z,98277.69
2022-12-16T11:11:57.727Z,98282.16
2022-12-16T11:13:36.689Z,98289.91
2022-12-16T11:15:28.623Z,98294.31
2022-12-16T11:17:19.715Z,98297.56
2022-12-16T11:18:42.160Z,98302.41
2022-12-16T11:20:18.551Z,98298.44
2022-12-16T11:21:40.958Z,98300.19
2022-12-16T11:23:03.450Z,98300.69
2022-12-16T11:24:39.071Z,98305.31
2022-12-16T11:26:01.646Z,98311.03
2022-12-16T11:27:43.571Z,98309.03
2022-12-16T11:29:23.531Z,98322.13
2022-12-16T11:30:45.715Z,98319.91
2022-12-16T11:32:37.078Z,98318.59
2022-12-16T11:34:01.949Z,98315.16
2022-12-16T11:35:34.372Z,98321.28
2022-12-16T11:37:00.553Z,98328.13
2022-12-16T11:38:30.851Z,98326.34
2022-12-16T11:39:55.399Z,98320.91
2022-12-16T11:41:18.838Z,98320.66
2022-12-16T11:42:48.083Z,98328.41
2022-12-16T11:44:14.502Z,98329.34
2022-12-16T11:45:40.859Z,98335.22
2022-12-16T11:47:04.528Z,98333.53
2022-12-16T11:48:50.152Z,98336.06
2022-12-16T11:50:17.864Z,98330.50
2022-12-16T11:51:41.745Z,98335.81
2022-12-16T11:53:19.897Z,98337.22
2022-12-16T11:54:54.257Z,98334.22
2022-12-16T11:56:17.192Z,98343.06
2022-12-16T11:57:53.790Z,98341.34
2022-12-16T11:59:31.363Z,98339.53
2022-12-16T12:01:04.203Z,98335.97
2022-12-16T12:03:05.884Z,98340.91
2022-12-16T12:04:28.658Z,98331.41
2022-12-16T12:06:03.465Z,98333.44
2022-12-16T12:07:45.493Z,98336.75
2022-12-16T12:09:35.994Z,98340.66
2022-12-16T12:11:22.565Z,98345.16
2022-12-16T12:13:07.074Z,98337.13
2022-12-16T12:14:59.019Z,98352.06
2022-12-16T12:16:58.977Z,98346.47
2022-12-16T12:19:08.320Z,98347.97
2022-12-16T12:21:16.173Z,98355.69
2022-12-16T12:22:56.062Z,98361.41
2022-12-16T12:24:33.389Z,98349.84
2022-12-16T12:26:26.540Z,98353.47
2022-12-16T12:28:24.479Z,98355.69
2022-12-16T12:30:22.661Z,98356.38
2022-12-16T12:32:06.496Z,98360.78
2022-12-16T12:33:34.659Z,98361.63
2022-12-16T12:35:21.811Z,98354.56
2022-12-16T12:37:01.601Z,98356.38
2022-12-16T12:38:42.071Z,98364.31
2022-12-16T12:40:19.655Z,98369.47
2022-12-16T12:42:12.058Z,98374.34
2022-12-16T12:44:05.502Z,98376.66
2022-12-16T12:45:49.647Z,98370.72
2022-12-16T12:47:25.967Z,98372.16
2022-12-16T12:48:57.628Z,98377.13
2022-12-16T12:50:44.107Z,98375.38
2022-12-16T12:52:24.031Z,98385.09
2022-12-16T12:54:33.405Z,98388.66
2022-12-16T12:56:24.173Z,98390.78
2022-12-16T12:57:48.540Z,98393.25
2022-12-16T12:59:18.011Z,98398.47
2022-12-16T13:00:45.795Z,98396.03
2022-12-16T13:02:12.914Z,98391.84
2022-12-16T13:03:53.428Z,98397.81
2022-12-16T13:05:34.405Z,98402.03
2022-12-16T13:06:57.724Z,98407.19
2022-12-16T13:08:51.566Z,98411.28
2022-12-16T13:10:44.567Z,98414.66
2022-12-16T13:12:25.322Z,98414.84
2022-12-16T13:13:55.657Z,98423.44
2022-12-16T13:15:26.437Z,98429.47
2022-12-16T13:17:03.744Z,98433.50
2022-12-16T13:18:26.213Z,98436.13
2022-12-16T13:19:48.867Z,98435.69
2022-12-16T13:21:15.924Z,98436.22
2022-12-16T13:22:56.472Z,98443.34
2022-12-16T13:25:03.281Z,98438.69
2022-12-16T13:26:37.982Z,98448.22
2022-12-16T13:28:15.598Z,98444.63
2022-12-16T13:29:48.387Z,98443.84
2022-12-16T13:31:25.819Z,98444.84
2022-12-16T13:32:48.543Z,98449.16
2022-12-16T13:34:14.055Z,98454.19
2022-12-16T13:35:38.060Z,98450.63
2022-12-16T13:37:04.445Z,98450.06
2022-12-16T13:38:45.655Z,98452.97
2022-12-16T13:40:38.514Z,98466.78
2022-12-16T13:42:00.923Z,98464.22
2022-12-16T13:43:25.282Z,98463.94
2022-12-16T13:45:14.183Z,98469.91
2022-12-16T13:46:38.940Z,98481.50
2022-12-16T13:48:00.627Z,98474.84
2022-12-16T13:49:54.590Z,98487.09
2022-12-16T13:51:19.057Z,98475.78
2022-12-16T13:53:19.114Z,98478.22
2022-12-16T13:55:03.987Z,98478.09
2022-12-16T13:56:26.826Z,98491.19
2022-12-16T13:57:55.040Z,98490.28
2022-12-16T13:59:25.517Z,98496.63
2022-12-16T14:00:54.652Z,98499.19
2022-12-16T14:02:31.687Z,98504.69
2022-12-16T14:04:08.537Z,98507.00
2022-12-16T14:05:48.481Z,98503.38
2022-12-16T14:07:11.734Z,98499.97
2022-12-16T14:08:41.360Z,98497.47
2022-12-16T14:10:08.008Z,98494.09
2022-12-16T14:12:12.770Z,98498.97
2022-12-16T14:13:47.599Z,98491.75
2022-12-16T14:15:26.750Z,98492.41
2022-12-16T14:17:17.782Z,98486.53
2022-12-16T14:18:57.339Z,98482.06
2022-12-16T14:20:42.686Z,98494.38
2022-12-16T14:22:34.742Z,98495.56
2022-12-16T14:24:19.731Z,98502.66
2022-12-16T14:25:43.364Z,98511.16
2022-12-16T14:27:06.495Z,98514.53
2022-12-16T14:28:59.057Z,98522.13
2022-12-16T14:30:45.692Z,98534.41
2022-12-16T14:32:07.851Z,98542.13
2022-12-16T14:33:45.305Z,98537.88
2022-12-16T14:35:29.965Z,98542.13
2022-12-16T14:36:59.229Z,98540.38
2022-12-16T14:38:54.273Z,98540.38
2022-12-16T14:40:16.757Z,98546.91
2022-12-16T14:41:44.234Z,98543.47
2022-12-16T14:43:13.180Z,98541.75
2022-12-16T14:44:42.525Z,98543.34
2022-12-16T14:46:09.441Z,98543.53
2022-12-16T14:47:41.064Z,98555.66
2022-12-16T14:49:08.084Z,98557.19
2022-12-16T14:51:00.346Z,98560.09
2022-12-16T14:52:41.186Z,98566.31
2022-12-16T14:54:03.445Z,98573.09
2022-12-16T14:55:46.539Z,98571.53
2022-12-16T14:57:09.790Z,98570.19
2022-12-16T14:58:36.246Z,98572.53
2022-12-16T15:00:00.830Z,98580.44
2022-12-16T15:01:37.884Z,98580.41
2022-12-16T15:03:08.057Z,98585.56
2022-12-16T15:04:40.790Z,98576.84
2022-12-16T15:06:04.254Z,98583.53
2022-12-16T15:07:33.772Z,98585.06
2022-12-16T15:09:25.033Z,98584.09
2022-12-16T15:10:48.103Z,98580.25
2022-12-16T15:12:13.566Z,98580.94
2022-12-16T15:13:38.160Z,98592.81
2022-12-16T15:15:02.172Z,98591.25
2022-12-16T15:16:26.097Z,98591.97
2022-12-16T15:18:02.556Z,98599.75
2022-12-16T15:19:25.392Z,98597.13
2022-12-16T15:21:10.863Z,98597.53
2022-12-16T15:22:35.790Z,98596.41
2022-12-16T15:24:04.453Z,98600.78
2022-12-16T15:25:46.468Z,98592.81
2022-12-16T15:27:13.327Z,98592.69
2022-12-16T15:28:56.531Z,98604.06
2022-12-16T15:30:19.133Z,98608.59
2022-12-16T15:31:52.199Z,98611.06
2022-12-16T15:33:14.642Z,98614.09
2022-12-16T15:35:11.062Z,98623.63
2022-12-16T15:36:51.374Z,98621.59
2022-12-16T15:38:14.214Z,98620.53
2022-12-16T15:39:55.454Z,98624.09
2022-12-16T15:41:19.011Z,98625.00
2022-12-16T15:42:47.258Z,98630.06
2022-12-16T15:44:11.128Z,98635.41
2022-12-16T15:45:48.401Z,98629.53
2022-12-16T15:47:12.222Z,98634.63
2022-12-16T15:48:40.135Z,98633.00
2022-12-16T15:50:11.044Z,98639.78
2022-12-16T15:52:00.596Z,98643.41
2022-12-16T15:53:57.140Z,98647.00
2022-12-16T15:55:19.393Z,98647.84
2022-12-16T15:56:44.621Z,98662.50
2022-12-16T15:58:17.218Z,98653.94
2022-12-16T15:59:53.111Z,98652.53
2022-12-16T16:01:17.906Z,98651.69
2022-12-16T16:02:54.346Z,98657.59
2022-12-16T16:04:17.570Z,98665.19
2022-12-16T16:05:43.608Z,98663.66
2022-12-16T16:07:11.535Z,98660.88
2022-12-16T16:08:33.690Z,98659.88
2022-12-16T16:09:58.449Z,98656.59
2022-12-16T16:11:21.044Z,98660.66
2022-12-16T16:12:44.625Z,98661.53
2022-12-16T16:14:14.187Z,98665.03
2022-12-16T16:15:37.573Z,98665.03
2022-12-16T16:17:00.345Z,98662.38
2022-12-16T16:18:25.166Z,98671.06
2022-12-16T16:19:48.175Z,98666.53
2022-12-16T16:21:11.739Z,98672.56
2022-12-16T16:22:37.009Z,98675.13
2022-12-16T16:24:00.118Z,98681.28
2022-12-16T16:25:23.427Z,98689.91
2022-12-16T16:26:47.166Z,98694.31
2022-12-16T16:28:12.153Z,98691.47